createdAt,value
2018-02-07T00:04:26.997Z,79.2
2018-02-07T00:15:12.737Z,79.3
2018-02-07T00:25:25.972Z,79.3
2018-02-07T00:35:39.186Z,79.3
2018-02-07T01:14:50.678Z,78.9
2018-02-07T01:25:03.940Z,79.2
2018-02-07T01:49:02.257Z,79.0
2018-02-07T01:59:16.293Z,78.7
2018-02-07T02:09:29.855Z,78.9
2018-02-07T02:36:43.711Z,78.5
2018-02-07T02:52:07.555Z,78.6
2018-02-07T03:02:21.214Z,78.0
2018-02-07T03:12:35.387Z,78.3
2018-02-07T03:22:49.290Z,78.2
2018-02-07T03:33:02.764Z,78.3
2018-02-07T03:58:49.940Z,78.6
2018-02-07T04:09:04.925Z,78.5
2018-02-07T04:19:18.988Z,78.4
2018-02-07T04:31:21.518Z,78.3
2018-02-07T04:42:00.532Z,78.5
2018-02-07T04:54:18.359Z,78.6
2018-02-07T05:17:50.298Z,78.3
2018-02-07T05:28:04.039Z,78.2
2018-02-07T05:40:29.325Z,78.2
2018-02-07T05:55:06.154Z,78.2
2018-02-07T06:23:41.030Z,77.8
2018-02-07T07:07:05.627Z,77.8
2018-02-07T07:17:19.861Z,78.0
2018-02-07T07:28:04.613Z,78.1
2018-02-07T07:39:44.303Z,78.0
2018-02-07T08:46:30.812Z,78.0
2018-02-07T08:56:44.648Z,73.0
2018-02-07T09:06:58.360Z,71.2
2018-02-07T09:17:17.606Z,70.9
2018-02-07T09:27:32.484Z,71.4
2018-02-07T09:40:58.014Z,72.2
2018-02-07T09:51:59.470Z,73.3
2018-02-07T10:02:13.215Z,74.2
2018-02-07T10:12:57.531Z,75.0
2018-02-07T10:23:41.582Z,75.6
2018-02-07T10:33:55.832Z,75.9
2018-02-07T10:44:40.371Z,78.5
2018-02-07T10:55:25.263Z,84.4
2018-02-07T11:06:09.930Z,85.7
2018-02-07T11:16:23.457Z,84.7
2018-02-07T11:26:37.643Z,83.4
2018-02-07T11:37:12.715Z,80.9
2018-02-07T11:47:26.802Z,78.0
2018-02-07T11:59:57.544Z,74.9
2018-02-07T12:13:00.777Z,72.3
2018-02-07T12:23:52.030Z,69.8
2018-02-07T12:34:06.845Z,68.5
2018-02-07T12:44:52.543Z,67.0
2018-02-07T12:55:37.372Z,66.6
2018-02-07T13:05:51.404Z,66.3
2018-02-07T13:16:05.852Z,66.7
2018-02-07T13:26:19.998Z,67.6
2018-02-07T13:36:34.106Z,68.8
2018-02-07T13:47:37.244Z,71.2
2018-02-07T13:57:55.883Z,74.2
2018-02-07T14:08:27.742Z,77.4
2018-02-07T14:19:08.860Z,77.4
2018-02-07T14:29:23.050Z,78.0
2018-02-07T14:39:55.349Z,79.2
2018-02-07T14:50:25.150Z,78.7
2018-02-07T15:01:09.919Z,79.3
2018-02-07T15:11:24.426Z,78.6
2018-02-07T15:22:22.071Z,77.9
2018-02-07T15:33:25.130Z,77.3
2018-02-07T15:43:41.103Z,75.5
2018-02-07T16:04:43.273Z,74.7
2018-02-07T16:14:58.013Z,73.9
2018-02-07T16:25:57.103Z,73.4
2018-02-07T16:36:13.384Z,73.0
2018-02-07T16:46:28.541Z,72.6
2018-02-07T16:57:24.283Z,72.6
2018-02-07T17:07:39.677Z,71.9
2018-02-07T17:18:24.300Z,71.6
2018-02-07T17:28:52.426Z,71.9
2018-02-07T17:39:08.124Z,72.3
2018-02-07T17:51:25.358Z,72.5
2018-02-07T18:17:17.527Z,72.8
2018-02-07T18:30:42.907Z,73.1
2018-02-07T18:40:57.794Z,73.0
2018-02-07T18:52:41.755Z,73.3
2018-02-07T19:33:33.302Z,73.4
2018-02-07T20:26:10.077Z,73.6
2018-02-07T20:56:10.707Z,73.5
2018-02-07T21:10:05.310Z,73.5
2018-02-07T21:40:53.880Z,73.7
2018-02-07T22:09:52.901Z,73.8
2018-02-07T22:23:58.158Z,73.6
2018-02-07T22:34:12.476Z,73.2
2018-02-07T22:47:40.963Z,73.5
2018-02-07T23:36:03.981Z,73.4
2018-02-07T23:46:18.076Z,73.2
2018-02-07T23:56:32.485Z,73.3
